sensor_id;sensor_type;location;lat;lon;timestamp;temperature;humidity
5466;DHT22;2755;50.728;7.108;2022-08-05T00:01:12;21.60;99.90
5466;DHT22;2755;50.728;7.108;2022-08-05T00:03:38;21.30;99.90
5466;DHT22;2755;50.728;7.108;2022-08-05T00:06:04;22.30;99.90
5466;DHT22;2755;50.728;7.108;2022-08-05T00:10:57;21.40;99.90
5466;DHT22;2755;50.728;7.108;2022-08-05T00:13:22;21.50;99.90
5466;DHT22;2755;50.728;7.108;2022-08-05T00:15:48;21.30;99.90
5466;DHT22;2755;50.728;7.108;2022-08-05T00:23:06;21.30;99.90
5466;DHT22;2755;50.728;7.108;2022-08-05T00:25:32;21.70;99.90
5466;DHT22;2755;50.728;7.108;2022-08-05T00:30:24;21.30;99.90
5466;DHT22;2755;50.728;7.108;2022-08-05T00:32:50;21.20;99.90
5466;DHT22;2755;50.728;7.108;2022-08-05T00:37:41;21.20;99.90
5466;DHT22;2755;50.728;7.108;2022-08-05T00:40:07;21.20;99.90
5466;DHT22;2755;50.728;7.108;2022-08-05T00:42:35;21.30;99.90
5466;DHT22;2755;50.728;7.108;2022-08-05T00:45:03;21.10;99.90
5466;DHT22;2755;50.728;7.108;2022-08-05T00:47:29;20.90;99.90
5466;DHT22;2755;50.728;7.108;2022-08-05T00:52:20;21.00;99.90
5466;DHT22;2755;50.728;7.108;2022-08-05T00:54:47;20.90;99.90
5466;DHT22;2755;50.728;7.108;2022-08-05T00:57:13;20.50;99.90
5466;DHT22;2755;50.728;7.108;2022-08-05T01:04:30;21.10;99.90
5466;DHT22;2755;50.728;7.108;2022-08-05T01:06:56;21.00;99.90
5466;DHT22;2755;50.728;7.108;2022-08-05T01:09:21;21.10;99.90
5466;DHT22;2755;50.728;7.108;2022-08-05T01:11:52;20.80;99.90
5466;DHT22;2755;50.728;7.108;2022-08-05T01:19:49;20.60;99.90
5466;DHT22;2755;50.728;7.108;2022-08-05T01:30:58;20.70;99.90
5466;DHT22;2755;50.728;7.108;2022-08-05T01:33:31;20.90;99.90
5466;DHT22;2755;50.728;7.108;2022-08-05T01:38:25;21.00;99.90
5466;DHT22;2755;50.728;7.108;2022-08-05T01:40:51;20.10;99.90
5466;DHT22;2755;50.728;7.108;2022-08-05T01:43:19;20.60;99.90
5466;DHT22;2755;50.728;7.108;2022-08-05T01:45:47;20.90;99.90
5466;DHT22;2755;50.728;7.108;2022-08-05T01:48:13;20.80;99.90
5466;DHT22;2755;50.728;7.108;2022-08-05T01:50:40;20.10;99.90
5466;DHT22;2755;50.728;7.108;2022-08-05T01:53:11;20.40;99.90
5466;DHT22;2755;50.728;7.108;2022-08-05T01:58:06;20.40;99.90
5466;DHT22;2755;50.728;7.108;2022-08-05T02:00:35;20.60;99.90
5466;DHT22;2755;50.728;7.108;2022-08-05T02:03:21;20.50;99.90
5466;DHT22;2755;50.728;7.108;2022-08-05T02:05:48;20.80;99.90
5466;DHT22;2755;50.728;7.108;2022-08-05T02:08:14;20.60;99.90
5466;DHT22;2755;50.728;7.108;2022-08-05T02:10:50;20.50;99.90
5466;DHT22;2755;50.728;7.108;2022-08-05T02:13:40;20.30;99.90
5466;DHT22;2755;50.728;7.108;2022-08-05T02:16:29;19.40;99.90
5466;DHT22;2755;50.728;7.108;2022-08-05T02:19:09;20.20;99.90
5466;DHT22;2755;50.728;7.108;2022-08-05T02:24:10;20.50;99.90
5466;DHT22;2755;50.728;7.108;2022-08-05T02:26:42;20.30;99.90
5466;DHT22;2755;50.728;7.108;2022-08-05T02:29:11;20.10;99.90
5466;DHT22;2755;50.728;7.108;2022-08-05T02:31:37;20.20;99.90
5466;DHT22;2755;50.728;7.108;2022-08-05T02:34:08;20.30;99.90
5466;DHT22;2755;50.728;7.108;2022-08-05T02:36:40;20.30;99.90
5466;DHT22;2755;50.728;7.108;2022-08-05T02:39:07;19.50;99.90
5466;DHT22;2755;50.728;7.108;2022-08-05T02:41:35;20.20;99.90
5466;DHT22;2755;50.728;7.108;2022-08-05T02:44:05;20.00;99.90
5466;DHT22;2755;50.728;7.108;2022-08-05T02:46:33;20.00;99.90
5466;DHT22;2755;50.728;7.108;2022-08-05T02:48:59;20.30;99.90
5466;DHT22;2755;50.728;7.108;2022-08-05T02:51:25;20.20;99.90
5466;DHT22;2755;50.728;7.108;2022-08-05T02:53:51;20.20;99.90
5466;DHT22;2755;50.728;7.108;2022-08-05T02:56:18;19.80;99.90
5466;DHT22;2755;50.728;7.108;2022-08-05T02:58:44;20.00;99.90
5466;DHT22;2755;50.728;7.108;2022-08-05T03:01:16;20.20;99.90
5466;DHT22;2755;50.728;7.108;2022-08-05T03:03:43;20.30;99.90
5466;DHT22;2755;50.728;7.108;2022-08-05T03:06:10;19.90;99.90
5466;DHT22;2755;50.728;7.108;2022-08-05T03:08:38;19.80;99.90
5466;DHT22;2755;50.728;7.108;2022-08-05T03:11:22;19.50;99.90
5466;DHT22;2755;50.728;7.108;2022-08-05T03:13:48;19.70;99.90
5466;DHT22;2755;50.728;7.108;2022-08-05T03:16:15;19.10;99.90
5466;DHT22;2755;50.728;7.108;2022-08-05T03:18:41;19.00;99.90
5466;DHT22;2755;50.728;7.108;2022-08-05T03:23:34;18.80;99.90
5466;DHT22;2755;50.728;7.108;2022-08-05T03:26:00;18.60;99.90
5466;DHT22;2755;50.728;7.108;2022-08-05T03:28:26;19.00;99.90
5466;DHT22;2755;50.728;7.108;2022-08-05T03:30:53;18.90;99.90
5466;DHT22;2755;50.728;7.108;2022-08-05T03:33:20;18.60;99.90
5466;DHT22;2755;50.728;7.108;2022-08-05T03:35:46;19.00;99.90
5466;DHT22;2755;50.728;7.108;2022-08-05T03:38:12;18.50;99.90
5466;DHT22;2755;50.728;7.108;2022-08-05T03:40:42;18.20;99.90
5466;DHT22;2755;50.728;7.108;2022-08-05T03:43:08;19.00;99.90
5466;DHT22;2755;50.728;7.108;2022-08-05T03:50:40;18.50;99.90
5466;DHT22;2755;50.728;7.108;2022-08-05T03:53:10;18.60;99.90
5466;DHT22;2755;50.728;7.108;2022-08-05T03:55:39;18.60;99.90
5466;DHT22;2755;50.728;7.108;2022-08-05T03:58:10;18.80;99.90
5466;DHT22;2755;50.728;7.108;2022-08-05T04:00:39;19.00;99.90
5466;DHT22;2755;50.728;7.108;2022-08-05T04:03:06;18.40;99.90
5466;DHT22;2755;50.728;7.108;2022-08-05T04:05:33;17.80;99.90
5466;DHT22;2755;50.728;7.108;2022-08-05T04:08:01;17.90;99.90
5466;DHT22;2755;50.728;7.108;2022-08-05T04:10:28;18.40;99.90
5466;DHT22;2755;50.728;7.108;2022-08-05T04:12:55;18.10;99.90
5466;DHT22;2755;50.728;7.108;2022-08-05T04:15:21;18.40;99.90
5466;DHT22;2755;50.728;7.108;2022-08-05T04:17:47;18.10;99.90
5466;DHT22;2755;50.728;7.108;2022-08-05T04:20:20;18.20;99.90
5466;DHT22;2755;50.728;7.108;2022-08-05T04:27:38;17.80;99.90
5466;DHT22;2755;50.728;7.108;2022-08-05T04:34:56;18.10;99.90
5466;DHT22;2755;50.728;7.108;2022-08-05T04:37:21;18.00;99.90
5466;DHT22;2755;50.728;7.108;2022-08-05T04:39:47;17.80;99.90
5466;DHT22;2755;50.728;7.108;2022-08-05T04:42:14;17.70;99.90
5466;DHT22;2755;50.728;7.108;2022-08-05T04:44:39;18.70;99.90
5466;DHT22;2755;50.728;7.108;2022-08-05T04:47:05;17.70;99.90
5466;DHT22;2755;50.728;7.108;2022-08-05T04:49:31;17.80;99.90
5466;DHT22;2755;50.728;7.108;2022-08-05T04:51:56;18.00;99.90
5466;DHT22;2755;50.728;7.108;2022-08-05T04:56:52;18.30;99.90
5466;DHT22;2755;50.728;7.108;2022-08-05T04:59:18;17.80;99.90
5466;DHT22;2755;50.728;7.108;2022-08-05T05:01:45;18.00;99.90
5466;DHT22;2755;50.728;7.108;2022-08-05T05:04:11;18.40;99.90
5466;DHT22;2755;50.728;7.108;2022-08-05T05:06:37;18.60;99.90
5466;DHT22;2755;50.728;7.108;2022-08-05T05:09:02;18.40;99.90
5466;DHT22;2755;50.728;7.108;2022-08-05T05:13:54;18.50;99.90
5466;DHT22;2755;50.728;7.108;2022-08-05T05:16:20;18.60;99.90
5466;DHT22;2755;50.728;7.108;2022-08-05T05:18:45;18.40;99.90
5466;DHT22;2755;50.728;7.108;2022-08-05T05:21:11;19.20;99.90
5466;DHT22;2755;50.728;7.108;2022-08-05T05:23:37;19.00;99.90
5466;DHT22;2755;50.728;7.108;2022-08-05T05:26:03;18.80;99.90
5466;DHT22;2755;50.728;7.108;2022-08-05T05:30:54;18.70;99.90
5466;DHT22;2755;50.728;7.108;2022-08-05T05:33:20;17.70;99.90
5466;DHT22;2755;50.728;7.108;2022-08-05T05:35:46;18.80;99.90
5466;DHT22;2755;50.728;7.108;2022-08-05T05:38:12;18.90;99.90
5466;DHT22;2755;50.728;7.108;2022-08-05T05:40:38;18.10;99.90
5466;DHT22;2755;50.728;7.108;2022-08-05T05:45:30;18.20;99.90
5466;DHT22;2755;50.728;7.108;2022-08-05T05:47:58;18.60;99.90
5466;DHT22;2755;50.728;7.108;2022-08-05T05:50:24;18.40;99.90
5466;DHT22;2755;50.728;7.108;2022-08-05T05:55:16;18.80;99.90
5466;DHT22;2755;50.728;7.108;2022-08-05T05:57:43;18.70;99.90
5466;DHT22;2755;50.728;7.108;2022-08-05T06:00:13;18.70;99.90
5466;DHT22;2755;50.728;7.108;2022-08-05T06:02:39;19.20;99.90
5466;DHT22;2755;50.728;7.108;2022-08-05T06:05:11;18.90;99.90
5466;DHT22;2755;50.728;7.108;2022-08-05T06:07:37;19.20;99.90
5466;DHT22;2755;50.728;7.108;2022-08-05T06:10:04;19.00;99.90
5466;DHT22;2755;50.728;7.108;2022-08-05T06:14:56;19.30;99.90
5466;DHT22;2755;50.728;7.108;2022-08-05T06:17:22;18.70;99.90
5466;DHT22;2755;50.728;7.108;2022-08-05T06:19:47;19.50;99.90
5466;DHT22;2755;50.728;7.108;2022-08-05T06:22:22;19.90;99.90
5466;DHT22;2755;50.728;7.108;2022-08-05T06:24:47;19.50;99.90
5466;DHT22;2755;50.728;7.108;2022-08-05T06:27:13;20.30;99.90
5466;DHT22;2755;50.728;7.108;2022-08-05T06:29:39;20.30;99.90
5466;DHT22;2755;50.728;7.108;2022-08-05T06:32:05;20.10;99.90
5466;DHT22;2755;50.728;7.108;2022-08-05T06:34:30;20.70;99.90
5466;DHT22;2755;50.728;7.108;2022-08-05T06:36:56;19.90;99.90
5466;DHT22;2755;50.728;7.108;2022-08-05T06:39:21;20.60;99.90
5466;DHT22;2755;50.728;7.108;2022-08-05T06:41:48;21.40;99.90
5466;DHT22;2755;50.728;7.108;2022-08-05T06:44:14;20.90;99.90
5466;DHT22;2755;50.728;7.108;2022-08-05T06:49:06;20.80;99.90
5466;DHT22;2755;50.728;7.108;2022-08-05T06:51:31;21.00;99.90
5466;DHT22;2755;50.728;7.108;2022-08-05T06:53:58;20.60;99.90
5466;DHT22;2755;50.728;7.108;2022-08-05T06:56:24;21.00;99.90
5466;DHT22;2755;50.728;7.108;2022-08-05T07:01:15;20.50;99.90
5466;DHT22;2755;50.728;7.108;2022-08-05T07:03:41;20.80;99.90
5466;DHT22;2755;50.728;7.108;2022-08-05T07:06:07;20.50;99.90
5466;DHT22;2755;50.728;7.108;2022-08-05T07:08:32;20.20;99.90
5466;DHT22;2755;50.728;7.108;2022-08-05T07:10:58;20.40;99.90
5466;DHT22;2755;50.728;7.108;2022-08-05T07:13:24;20.10;99.90
5466;DHT22;2755;50.728;7.108;2022-08-05T07:16:08;20.50;99.90
5466;DHT22;2755;50.728;7.108;2022-08-05T07:18:52;20.40;99.90
5466;DHT22;2755;50.728;7.108;2022-08-05T07:21:18;20.50;99.90
5466;DHT22;2755;50.728;7.108;2022-08-05T07:23:44;20.80;99.90
5466;DHT22;2755;50.728;7.108;2022-08-05T07:26:09;21.10;99.90
5466;DHT22;2755;50.728;7.108;2022-08-05T07:33:27;20.90;99.90
5466;DHT22;2755;50.728;7.108;2022-08-05T07:38:19;21.50;99.90
5466;DHT22;2755;50.728;7.108;2022-08-05T07:40:44;21.20;99.90
5466;DHT22;2755;50.728;7.108;2022-08-05T07:43:11;20.10;99.90
5466;DHT22;2755;50.728;7.108;2022-08-05T07:45:39;21.20;99.90
5466;DHT22;2755;50.728;7.108;2022-08-05T07:48:05;21.20;99.90
5466;DHT22;2755;50.728;7.108;2022-08-05T07:52:56;21.50;99.90
5466;DHT22;2755;50.728;7.108;2022-08-05T07:55:22;22.30;99.90
5466;DHT22;2755;50.728;7.108;2022-08-05T07:57:47;21.80;99.90
5466;DHT22;2755;50.728;7.108;2022-08-05T08:00:13;22.20;99.90
5466;DHT22;2755;50.728;7.108;2022-08-05T08:02:39;22.00;99.90
5466;DHT22;2755;50.728;7.108;2022-08-05T08:05:05;22.20;99.90
5466;DHT22;2755;50.728;7.108;2022-08-05T08:07:31;22.70;99.90
5466;DHT22;2755;50.728;7.108;2022-08-05T08:09:57;23.10;99.90
5466;DHT22;2755;50.728;7.108;2022-08-05T08:12:23;22.60;99.90
5466;DHT22;2755;50.728;7.108;2022-08-05T08:14:49;22.70;99.90
5466;DHT22;2755;50.728;7.108;2022-08-05T08:17:15;22.40;99.90
5466;DHT22;2755;50.728;7.108;2022-08-05T08:19:40;22.20;99.90
5466;DHT22;2755;50.728;7.108;2022-08-05T08:22:07;21.80;99.90
5466;DHT22;2755;50.728;7.108;2022-08-05T08:24:33;21.80;99.90
5466;DHT22;2755;50.728;7.108;2022-08-05T08:27:00;21.70;99.90
5466;DHT22;2755;50.728;7.108;2022-08-05T08:29:25;21.60;99.90
5466;DHT22;2755;50.728;7.108;2022-08-05T08:31:51;22.10;99.90
5466;DHT22;2755;50.728;7.108;2022-08-05T08:34:18;22.10;99.90
5466;DHT22;2755;50.728;7.108;2022-08-05T08:36:44;22.00;99.90
5466;DHT22;2755;50.728;7.108;2022-08-05T08:39:09;21.70;99.90
5466;DHT22;2755;50.728;7.108;2022-08-05T08:41:36;21.90;99.90
5466;DHT22;2755;50.728;7.108;2022-08-05T08:44:06;22.80;99.90
5466;DHT22;2755;50.728;7.108;2022-08-05T08:46:33;21.80;99.90
5466;DHT22;2755;50.728;7.108;2022-08-05T08:49:02;22.00;99.90
5466;DHT22;2755;50.728;7.108;2022-08-05T08:51:31;21.80;99.90
5466;DHT22;2755;50.728;7.108;2022-08-05T08:53:57;22.70;99.90
5466;DHT22;2755;50.728;7.108;2022-08-05T08:56:23;21.90;99.90
5466;DHT22;2755;50.728;7.108;2022-08-05T08:58:49;21.70;99.90
5466;DHT22;2755;50.728;7.108;2022-08-05T09:01:16;21.80;99.90
5466;DHT22;2755;50.728;7.108;2022-08-05T09:03:46;21.50;99.90
5466;DHT22;2755;50.728;7.108;2022-08-05T09:06:12;21.60;99.90
5466;DHT22;2755;50.728;7.108;2022-08-05T09:08:37;21.40;99.90
5466;DHT22;2755;50.728;7.108;2022-08-05T09:11:03;21.90;99.90
5466;DHT22;2755;50.728;7.108;2022-08-05T09:13:29;21.60;99.90
5466;DHT22;2755;50.728;7.108;2022-08-05T09:15:55;21.40;99.90
5466;DHT22;2755;50.728;7.108;2022-08-05T09:18:21;22.20;99.90
5466;DHT22;2755;50.728;7.108;2022-08-05T09:20:46;22.00;99.90
5466;DHT22;2755;50.728;7.108;2022-08-05T09:23:17;22.20;99.90
5466;DHT22;2755;50.728;7.108;2022-08-05T09:25:49;22.70;99.90
5466;DHT22;2755;50.728;7.108;2022-08-05T09:28:17;22.40;99.90
5466;DHT22;2755;50.728;7.108;2022-08-05T09:30:44;22.50;99.90
5466;DHT22;2755;50.728;7.108;2022-08-05T09:33:16;22.30;99.90
5466;DHT22;2755;50.728;7.108;2022-08-05T09:38:23;21.70;99.90
5466;DHT22;2755;50.728;7.108;2022-08-05T09:40:49;23.10;99.90
5466;DHT22;2755;50.728;7.108;2022-08-05T09:45:58;23.00;99.90
5466;DHT22;2755;50.728;7.108;2022-08-05T09:48:26;23.20;99.90
5466;DHT22;2755;50.728;7.108;2022-08-05T09:50:57;23.00;99.90
5466;DHT22;2755;50.728;7.108;2022-08-05T09:53:25;22.90;99.90
5466;DHT22;2755;50.728;7.108;2022-08-05T10:01:02;22.50;99.90
5466;DHT22;2755;50.728;7.108;2022-08-05T10:03:28;22.00;99.90
5466;DHT22;2755;50.728;7.108;2022-08-05T10:08:46;21.80;99.90
5466;DHT22;2755;50.728;7.108;2022-08-05T10:11:14;22.90;99.90
5466;DHT22;2755;50.728;7.108;2022-08-05T10:13:40;21.70;99.90
5466;DHT22;2755;50.728;7.108;2022-08-05T10:16:31;21.60;99.90
5466;DHT22;2755;50.728;7.108;2022-08-05T10:18:57;21.20;99.90
5466;DHT22;2755;50.728;7.108;2022-08-05T10:21:23;21.10;99.90
5466;DHT22;2755;50.728;7.108;2022-08-05T10:23:49;21.20;99.90
5466;DHT22;2755;50.728;7.108;2022-08-05T10:28:42;21.10;99.90
5466;DHT22;2755;50.728;7.108;2022-08-05T10:31:11;20.70;99.90
5466;DHT22;2755;50.728;7.108;2022-08-05T10:33:38;21.00;99.90
5466;DHT22;2755;50.728;7.108;2022-08-05T10:36:04;22.10;99.90
5466;DHT22;2755;50.728;7.108;2022-08-05T10:38:32;21.40;99.90
5466;DHT22;2755;50.728;7.108;2022-08-05T10:41:03;20.90;99.90
5466;DHT22;2755;50.728;7.108;2022-08-05T10:46:17;20.40;99.90
5466;DHT22;2755;50.728;7.108;2022-08-05T10:48:45;20.00;99.90
5466;DHT22;2755;50.728;7.108;2022-08-05T10:51:16;18.90;99.90
5466;DHT22;2755;50.728;7.108;2022-08-05T10:53:54;19.90;99.90
5466;DHT22;2755;50.728;7.108;2022-08-05T11:01:36;19.60;99.90
5466;DHT22;2755;50.728;7.108;2022-08-05T11:04:11;19.90;99.90
5466;DHT22;2755;50.728;7.108;2022-08-05T11:09:48;19.60;99.90
5466;DHT22;2755;50.728;7.108;2022-08-05T11:17:47;19.70;99.90
5466;DHT22;2755;50.728;7.108;2022-08-05T11:20:33;19.80;99.90
5466;DHT22;2755;50.728;7.108;2022-08-05T11:25:36;19.90;99.90
5466;DHT22;2755;50.728;7.108;2022-08-05T11:33:28;20.00;99.90
5466;DHT22;2755;50.728;7.108;2022-08-05T11:36:02;20.00;99.90
5466;DHT22;2755;50.728;7.108;2022-08-05T11:41:13;20.30;99.90
5466;DHT22;2755;50.728;7.108;2022-08-05T11:43:44;20.10;99.90
5466;DHT22;2755;50.728;7.108;2022-08-05T11:46:16;20.40;99.90
5466;DHT22;2755;50.728;7.108;2022-08-05T11:48:42;20.50;99.90
5466;DHT22;2755;50.728;7.108;2022-08-05T11:51:09;20.10;99.90
5466;DHT22;2755;50.728;7.108;2022-08-05T11:53:35;20.50;99.90
5466;DHT22;2755;50.728;7.108;2022-08-05T11:56:01;20.90;99.90
5466;DHT22;2755;50.728;7.108;2022-08-05T11:58:32;21.10;99.90
5466;DHT22;2755;50.728;7.108;2022-08-05T12:01:05;21.80;99.90
5466;DHT22;2755;50.728;7.108;2022-08-05T12:03:55;21.70;99.90
5466;DHT22;2755;50.728;7.108;2022-08-05T12:06:23;22.10;99.90
5466;DHT22;2755;50.728;7.108;2022-08-05T12:08:52;22.90;99.90
5466;DHT22;2755;50.728;7.108;2022-08-05T12:11:27;22.80;99.90
5466;DHT22;2755;50.728;7.108;2022-08-05T12:14:01;24.10;99.90
5466;DHT22;2755;50.728;7.108;2022-08-05T12:16:31;23.80;99.90
5466;DHT22;2755;50.728;7.108;2022-08-05T12:18:57;23.70;99.90
5466;DHT22;2755;50.728;7.108;2022-08-05T12:21:25;23.70;98.80
5466;DHT22;2755;50.728;7.108;2022-08-05T12:26:29;23.80;99.90
5466;DHT22;2755;50.728;7.108;2022-08-05T12:28:54;23.10;99.90
5466;DHT22;2755;50.728;7.108;2022-08-05T12:33:46;23.20;99.90
5466;DHT22;2755;50.728;7.108;2022-08-05T12:36:13;23.10;99.80
5466;DHT22;2755;50.728;7.108;2022-08-05T12:43:33;23.70;99.90
5466;DHT22;2755;50.728;7.108;2022-08-05T12:45:59;24.40;99.90
5466;DHT22;2755;50.728;7.108;2022-08-05T12:48:25;25.10;99.70
5466;DHT22;2755;50.728;7.108;2022-08-05T12:51:10;26.30;94.80
5466;DHT22;2755;50.728;7.108;2022-08-05T12:53:40;26.40;91.20
5466;DHT22;2755;50.728;7.108;2022-08-05T12:56:22;25.70;92.70
5466;DHT22;2755;50.728;7.108;2022-08-05T12:59:11;25.80;93.50
5466;DHT22;2755;50.728;7.108;2022-08-05T13:04:04;25.90;93.30
5466;DHT22;2755;50.728;7.108;2022-08-05T13:06:30;25.30;93.20
5466;DHT22;2755;50.728;7.108;2022-08-05T13:08:56;25.50;93.60
5466;DHT22;2755;50.728;7.108;2022-08-05T13:11:28;25.70;93.70
5466;DHT22;2755;50.728;7.108;2022-08-05T13:13:57;26.40;92.70
5466;DHT22;2755;50.728;7.108;2022-08-05T13:16:23;26.60;91.20
5466;DHT22;2755;50.728;7.108;2022-08-05T13:18:53;27.00;87.50
5466;DHT22;2755;50.728;7.108;2022-08-05T13:21:19;28.00;88.30
5466;DHT22;2755;50.728;7.108;2022-08-05T13:23:45;27.90;91.10
5466;DHT22;2755;50.728;7.108;2022-08-05T13:26:10;26.80;82.90
5466;DHT22;2755;50.728;7.108;2022-08-05T13:28:36;26.60;82.70
5466;DHT22;2755;50.728;7.108;2022-08-05T13:31:02;27.00;88.20
5466;DHT22;2755;50.728;7.108;2022-08-05T13:33:27;26.50;81.30
5466;DHT22;2755;50.728;7.108;2022-08-05T13:35:54;25.70;82.80
5466;DHT22;2755;50.728;7.108;2022-08-05T13:38:19;24.70;82.40
5466;DHT22;2755;50.728;7.108;2022-08-05T13:40:45;25.00;84.90
5466;DHT22;2755;50.728;7.108;2022-08-05T13:43:11;24.60;89.30
5466;DHT22;2755;50.728;7.108;2022-08-05T13:45:38;23.10;89.00
5466;DHT22;2755;50.728;7.108;2022-08-05T13:48:03;25.10;90.50
5466;DHT22;2755;50.728;7.108;2022-08-05T13:50:29;24.00;90.30
5466;DHT22;2755;50.728;7.108;2022-08-05T13:52:54;23.80;88.80
5466;DHT22;2755;50.728;7.108;2022-08-05T14:00:12;24.30;91.50
5466;DHT22;2755;50.728;7.108;2022-08-05T14:02:38;24.20;91.30
5466;DHT22;2755;50.728;7.108;2022-08-05T14:07:41;23.40;90.30
5466;DHT22;2755;50.728;7.108;2022-08-05T14:10:10;24.20;90.60
5466;DHT22;2755;50.728;7.108;2022-08-05T14:12:36;24.10;90.80
5466;DHT22;2755;50.728;7.108;2022-08-05T14:15:03;24.20;91.90
5466;DHT22;2755;50.728;7.108;2022-08-05T14:19:54;24.00;92.10
5466;DHT22;2755;50.728;7.108;2022-08-05T14:22:20;24.20;92.80
5466;DHT22;2755;50.728;7.108;2022-08-05T14:24:46;24.60;92.70
5466;DHT22;2755;50.728;7.108;2022-08-05T14:29:38;24.60;93.00
5466;DHT22;2755;50.728;7.108;2022-08-05T14:32:04;24.30;90.50
5466;DHT22;2755;50.728;7.108;2022-08-05T14:34:30;24.40;91.20
5466;DHT22;2755;50.728;7.108;2022-08-05T14:36:55;24.40;91.60
5466;DHT22;2755;50.728;7.108;2022-08-05T14:39:21;24.80;91.50
5466;DHT22;2755;50.728;7.108;2022-08-05T14:41:46;24.40;90.70
5466;DHT22;2755;50.728;7.108;2022-08-05T14:44:12;24.50;90.20
5466;DHT22;2755;50.728;7.108;2022-08-05T14:49:04;23.80;90.70
5466;DHT22;2755;50.728;7.108;2022-08-05T14:53:59;24.00;91.80
5466;DHT22;2755;50.728;7.108;2022-08-05T14:56:25;23.80;92.50
5466;DHT22;2755;50.728;7.108;2022-08-05T14:58:50;23.70;92.80
5466;DHT22;2755;50.728;7.108;2022-08-05T15:01:17;23.40;91.90
5466;DHT22;2755;50.728;7.108;2022-08-05T15:06:10;23.50;91.80
5466;DHT22;2755;50.728;7.108;2022-08-05T15:08:35;24.40;92.10
5466;DHT22;2755;50.728;7.108;2022-08-05T15:11:02;24.70;92.10
5466;DHT22;2755;50.728;7.108;2022-08-05T15:15:54;24.30;93.50
5466;DHT22;2755;50.728;7.108;2022-08-05T15:18:20;23.50;90.70
5466;DHT22;2755;50.728;7.108;2022-08-05T15:20:46;23.70;91.20
5466;DHT22;2755;50.728;7.108;2022-08-05T15:23:12;24.30;92.30
5466;DHT22;2755;50.728;7.108;2022-08-05T15:25:38;23.90;93.00
5466;DHT22;2755;50.728;7.108;2022-08-05T15:30:33;22.80;95.00
5466;DHT22;2755;50.728;7.108;2022-08-05T15:33:01;23.10;94.90
5466;DHT22;2755;50.728;7.108;2022-08-05T15:35:27;23.80;95.30
5466;DHT22;2755;50.728;7.108;2022-08-05T15:37:53;22.10;90.70
5466;DHT22;2755;50.728;7.108;2022-08-05T15:40:19;23.20;86.20
5466;DHT22;2755;50.728;7.108;2022-08-05T15:42:45;23.40;85.20
5466;DHT22;2755;50.728;7.108;2022-08-05T15:45:11;22.90;87.50
5466;DHT22;2755;50.728;7.108;2022-08-05T15:47:37;22.70;83.50
5466;DHT22;2755;50.728;7.108;2022-08-05T15:50:04;23.50;82.20
5466;DHT22;2755;50.728;7.108;2022-08-05T15:52:30;23.50;86.20
5466;DHT22;2755;50.728;7.108;2022-08-05T15:57:23;22.80;83.80
5466;DHT22;2755;50.728;7.108;2022-08-05T15:59:49;22.80;85.30
5466;DHT22;2755;50.728;7.108;2022-08-05T16:04:41;22.20;82.60
5466;DHT22;2755;50.728;7.108;2022-08-05T16:07:08;22.50;84.40
5466;DHT22;2755;50.728;7.108;2022-08-05T16:09:33;22.60;86.60
5466;DHT22;2755;50.728;7.108;2022-08-05T16:11:59;22.60;89.30
5466;DHT22;2755;50.728;7.108;2022-08-05T16:14:25;22.50;90.00
5466;DHT22;2755;50.728;7.108;2022-08-05T16:16:51;23.00;88.30
5466;DHT22;2755;50.728;7.108;2022-08-05T16:19:17;22.40;85.50
5466;DHT22;2755;50.728;7.108;2022-08-05T16:21:42;22.20;87.60
5466;DHT22;2755;50.728;7.108;2022-08-05T16:24:08;22.50;88.20
5466;DHT22;2755;50.728;7.108;2022-08-05T16:26:55;22.40;83.80
5466;DHT22;2755;50.728;7.108;2022-08-05T16:29:22;22.40;85.50
5466;DHT22;2755;50.728;7.108;2022-08-05T16:31:48;22.30;87.40
5466;DHT22;2755;50.728;7.108;2022-08-05T16:34:15;22.10;87.60
5466;DHT22;2755;50.728;7.108;2022-08-05T16:36:41;22.80;85.00
5466;DHT22;2755;50.728;7.108;2022-08-05T16:39:07;22.50;85.40
5466;DHT22;2755;50.728;7.108;2022-08-05T16:41:33;22.70;88.20
5466;DHT22;2755;50.728;7.108;2022-08-05T16:44:02;22.50;87.50
5466;DHT22;2755;50.728;7.108;2022-08-05T16:46:28;22.40;85.00
5466;DHT22;2755;50.728;7.108;2022-08-05T16:48:54;22.40;86.30
5466;DHT22;2755;50.728;7.108;2022-08-05T16:51:19;22.50;85.20
5466;DHT22;2755;50.728;7.108;2022-08-05T16:53:45;22.80;86.80
5466;DHT22;2755;50.728;7.108;2022-08-05T16:56:11;22.40;89.00
5466;DHT22;2755;50.728;7.108;2022-08-05T16:58:36;22.20;88.70
5466;DHT22;2755;50.728;7.108;2022-08-05T17:03:29;22.20;87.20
5466;DHT22;2755;50.728;7.108;2022-08-05T17:05:54;22.60;86.60
5466;DHT22;2755;50.728;7.108;2022-08-05T17:08:21;22.40;86.20
5466;DHT22;2755;50.728;7.108;2022-08-05T17:13:13;22.30;88.10
5466;DHT22;2755;50.728;7.108;2022-08-05T17:15:39;22.50;88.90
5466;DHT22;2755;50.728;7.108;2022-08-05T17:18:04;21.90;88.90
5466;DHT22;2755;50.728;7.108;2022-08-05T17:20:30;22.80;90.80
5466;DHT22;2755;50.728;7.108;2022-08-05T17:22:56;22.20;92.00
5466;DHT22;2755;50.728;7.108;2022-08-05T17:25:22;22.00;88.60
5466;DHT22;2755;50.728;7.108;2022-08-05T17:27:48;22.20;91.10
5466;DHT22;2755;50.728;7.108;2022-08-05T17:30:14;21.60;88.00
5466;DHT22;2755;50.728;7.108;2022-08-05T17:32:41;21.60;90.10
5466;DHT22;2755;50.728;7.108;2022-08-05T17:35:07;21.90;90.00
5466;DHT22;2755;50.728;7.108;2022-08-05T17:37:33;21.60;88.60
5466;DHT22;2755;50.728;7.108;2022-08-05T17:39:58;22.50;90.50
5466;DHT22;2755;50.728;7.108;2022-08-05T17:42:24;21.30;90.20
5466;DHT22;2755;50.728;7.108;2022-08-05T17:49:42;21.80;89.20
5466;DHT22;2755;50.728;7.108;2022-08-05T17:52:08;21.60;90.00
5466;DHT22;2755;50.728;7.108;2022-08-05T17:54:34;21.60;90.10
5466;DHT22;2755;50.728;7.108;2022-08-05T17:57:02;21.20;90.30
5466;DHT22;2755;50.728;7.108;2022-08-05T17:59:28;21.00;89.40
5466;DHT22;2755;50.728;7.108;2022-08-05T18:01:53;21.60;90.00
5466;DHT22;2755;50.728;7.108;2022-08-05T18:04:19;21.20;90.80
5466;DHT22;2755;50.728;7.108;2022-08-05T18:06:44;21.40;90.10
5466;DHT22;2755;50.728;7.108;2022-08-05T18:09:10;21.30;90.40
5466;DHT22;2755;50.728;7.108;2022-08-05T18:11:35;20.70;90.00
5466;DHT22;2755;50.728;7.108;2022-08-05T18:14:02;21.20;88.80
5466;DHT22;2755;50.728;7.108;2022-08-05T18:16:28;21.40;90.40
5466;DHT22;2755;50.728;7.108;2022-08-05T18:18:53;21.70;90.00
5466;DHT22;2755;50.728;7.108;2022-08-05T18:21:19;21.20;91.10
5466;DHT22;2755;50.728;7.108;2022-08-05T18:23:45;21.10;90.20
5466;DHT22;2755;50.728;7.108;2022-08-05T18:26:10;21.50;84.40
5466;DHT22;2755;50.728;7.108;2022-08-05T18:28:38;21.00;82.50
5466;DHT22;2755;50.728;7.108;2022-08-05T18:33:30;21.40;78.30
5466;DHT22;2755;50.728;7.108;2022-08-05T18:35:56;21.70;79.50
5466;DHT22;2755;50.728;7.108;2022-08-05T18:38:21;20.80;78.20
5466;DHT22;2755;50.728;7.108;2022-08-05T18:40:47;20.20;81.70
5466;DHT22;2755;50.728;7.108;2022-08-05T18:43:16;20.90;77.60
5466;DHT22;2755;50.728;7.108;2022-08-05T18:45:41;20.80;78.90
5466;DHT22;2755;50.728;7.108;2022-08-05T18:50:33;20.80;81.70
5466;DHT22;2755;50.728;7.108;2022-08-05T18:53:17;20.60;82.50
5466;DHT22;2755;50.728;7.108;2022-08-05T18:55:43;21.30;81.20
5466;DHT22;2755;50.728;7.108;2022-08-05T18:58:11;20.30;79.70
5466;DHT22;2755;50.728;7.108;2022-08-05T19:00:37;20.00;77.90
5466;DHT22;2755;50.728;7.108;2022-08-05T19:03:05;20.30;78.60
5466;DHT22;2755;50.728;7.108;2022-08-05T19:08:00;20.40;79.10
5466;DHT22;2755;50.728;7.108;2022-08-05T19:10:30;20.50;79.10
5466;DHT22;2755;50.728;7.108;2022-08-05T19:12:56;20.30;80.20